createdAt,value
2022-12-23T00:01:02.085Z,53.47
2022-12-23T00:03:32.774Z,44.00
2022-12-23T00:06:00.837Z,48.70
2022-12-23T00:08:29.139Z,48.57
2022-12-23T00:10:59.764Z,51.37
2022-12-23T00:13:47.669Z,45.13
2022-12-23T00:16:15.124Z,46.17
2022-12-23T00:18:44.062Z,45.10
2022-12-23T00:21:14.023Z,49.80
2022-12-23T00:23:43.179Z,48.93
2022-12-23T00:26:20.834Z,45.57
2022-12-23T00:28:47.690Z,48.57
2022-12-23T00:31:19.221Z,48.67
2022-12-23T00:33:47.733Z,47.13
2022-12-23T00:36:18.307Z,47.90
2022-12-23T00:39:04.089Z,47.43
2022-12-23T00:41:49.016Z,51.10
2022-12-23T00:44:15.710Z,49.20
2022-12-23T00:46:42.354Z,51.17
2022-12-23T00:49:30.275Z,52.47
2022-12-23T00:51:57.680Z,46.60
2022-12-23T00:54:24.693Z,51.50
2022-12-23T00:56:51.335Z,51.67
2022-12-23T00:59:18.463Z,49.20
2022-12-23T01:01:59.970Z,54.50
2022-12-23T01:04:45.091Z,58.10
2022-12-23T01:07:12.886Z,58.93
2022-12-23T01:09:39.547Z,55.70
2022-12-23T01:12:06.423Z,52.97
2022-12-23T01:14:33.113Z,55.43
2022-12-23T01:17:00.014Z,56.70
2022-12-23T01:19:27.381Z,51.77
2022-12-23T01:21:54.274Z,62.23
2022-12-23T01:24:21.999Z,63.03
2022-12-23T01:26:48.654Z,64.27
2022-12-23T01:29:15.287Z,59.30
2022-12-23T01:31:41.969Z,56.87
2022-12-23T01:34:09.754Z,61.20
2022-12-23T01:36:36.461Z,62.73
2022-12-23T01:39:03.377Z,53.83
2022-12-23T01:41:50.763Z,63.73
2022-12-23T01:44:53.417Z,54.67
2022-12-23T01:47:25.779Z,51.60
2022-12-23T01:49:56.894Z,59.10
2022-12-23T01:52:24.158Z,53.47
2022-12-23T01:54:51.521Z,59.27
2022-12-23T01:57:18.923Z,53.63
2022-12-23T02:00:03.539Z,56.53
2022-12-23T02:03:01.513Z,59.63
2022-12-23T02:05:28.462Z,52.97
2022-12-23T02:08:14.806Z,58.90
2022-12-23T02:10:58.553Z,57.57
2022-12-23T02:13:32.000Z,61.40
2022-12-23T02:16:17.143Z,64.23
2022-12-23T02:19:09.811Z,59.73
2022-12-23T02:21:46.781Z,60.87
2022-12-23T02:25:04.695Z,60.57
2022-12-23T02:27:34.092Z,62.57
2022-12-23T02:30:29.888Z,70.10
2022-12-23T02:33:25.690Z,70.60
2022-12-23T02:35:59.272Z,63.20
2022-12-23T02:38:32.131Z,66.30
2022-12-23T02:41:10.691Z,67.63
2022-12-23T02:43:43.249Z,63.63
2022-12-23T02:46:16.609Z,66.03
2022-12-23T02:48:48.589Z,65.83
2022-12-23T02:51:15.850Z,59.87
2022-12-23T02:53:47.372Z,63.83
2022-12-23T02:56:15.496Z,67.47
2022-12-23T02:58:46.496Z,68.77
2022-12-23T03:01:15.849Z,77.90
2022-12-23T03:03:43.943Z,80.43
2022-12-23T03:06:19.451Z,72.53
2022-12-23T03:08:47.118Z,64.37
2022-12-23T03:11:15.799Z,78.43
2022-12-23T03:14:16.402Z,68.97
2022-12-23T03:16:53.289Z,69.17
2022-12-23T03:19:26.039Z,76.20
2022-12-23T03:22:00.184Z,74.73
2022-12-23T03:24:35.934Z,70.97
2022-12-23T03:27:07.645Z,72.10
2022-12-23T03:29:41.105Z,77.20
2022-12-23T03:32:11.864Z,67.53
2022-12-23T03:34:42.830Z,72.70
2022-12-23T03:37:12.636Z,72.87
2022-12-23T03:39:46.347Z,80.90
2022-12-23T03:42:18.256Z,74.17
2022-12-23T03:45:19.054Z,62.37
2022-12-23T03:47:41.336Z,79.10
2022-12-23T03:50:11.767Z,66.50
2022-12-23T03:52:41.622Z,69.30
2022-12-23T03:55:14.891Z,68.90
2022-12-23T03:57:46.680Z,63.13
2022-12-23T04:00:13.724Z,75.73
2022-12-23T04:02:51.558Z,66.37
2022-12-23T04:05:24.649Z,63.07
2022-12-23T04:07:56.813Z,65.57
2022-12-23T04:10:24.719Z,63.47
2022-12-23T04:12:51.632Z,66.67
2022-12-23T04:15:22.463Z,69.87
2022-12-23T04:17:50.582Z,71.83
2022-12-23T04:20:17.689Z,71.20
2022-12-23T04:22:44.527Z,71.67
2022-12-23T04:25:11.589Z,59.23
2022-12-23T04:27:38.259Z,74.10
2022-12-23T04:30:07.367Z,75.73
2022-12-23T04:32:34.225Z,61.07
2022-12-23T04:35:01.824Z,62.60
2022-12-23T04:37:28.759Z,58.30
2022-12-23T04:39:55.537Z,58.67
2022-12-23T04:42:22.179Z,60.60
2022-12-23T04:44:48.800Z,73.90
2022-12-23T04:47:15.436Z,67.23
2022-12-23T04:49:42.024Z,61.70
2022-12-23T04:52:09.296Z,71.97
2022-12-23T04:54:40.536Z,69.67
2022-12-23T04:57:10.629Z,66.30
2022-12-23T04:59:37.263Z,62.47
2022-12-23T05:02:04.066Z,62.77
2022-12-23T05:04:31.177Z,60.17
2022-12-23T05:06:57.852Z,56.17
2022-12-23T05:09:25.289Z,58.27
2022-12-23T05:11:51.875Z,65.20
2022-12-23T05:14:18.487Z,51.83
2022-12-23T05:16:45.135Z,60.00
2022-12-23T05:19:11.873Z,61.83
2022-12-23T05:21:38.519Z,54.37
2022-12-23T05:24:05.544Z,57.50
2022-12-23T05:26:32.816Z,57.57
2022-12-23T05:28:59.605Z,60.90
2022-12-23T05:31:26.600Z,61.57
2022-12-23T05:34:00.834Z,62.07
2022-12-23T05:36:30.861Z,65.83
2022-12-23T05:38:57.592Z,63.43
2022-12-23T05:41:24.282Z,74.67
2022-12-23T05:43:51.617Z,89.90
2022-12-23T05:46:24.359Z,90.37
2022-12-23T05:48:53.009Z,86.07
2022-12-23T05:51:19.688Z,86.17
2022-12-23T05:53:46.315Z,68.80
2022-12-23T05:56:13.013Z,66.40
2022-12-23T05:58:39.634Z,53.03
2022-12-23T06:01:07.440Z,62.17
2022-12-23T06:03:34.285Z,58.20
2022-12-23T06:06:01.165Z,61.23
2022-12-23T06:08:27.795Z,60.03
2022-12-23T06:10:54.620Z,75.83
2022-12-23T06:13:21.217Z,72.50
2022-12-23T06:15:48.008Z,64.50
2022-12-23T06:18:15.254Z,64.77
2022-12-23T06:20:44.696Z,59.57
2022-12-23T06:23:11.610Z,60.00
2022-12-23T06:25:38.251Z,57.50
2022-12-23T06:28:06.872Z,55.67
2022-12-23T06:30:33.658Z,59.97
2022-12-23T06:33:00.303Z,59.40
2022-12-23T06:35:27.689Z,57.40
2022-12-23T06:37:54.402Z,58.97
2022-12-23T06:40:21.036Z,56.63
2022-12-23T06:42:47.684Z,51.67
2022-12-23T06:45:14.499Z,53.43
2022-12-23T06:47:41.180Z,47.60
2022-12-23T06:50:08.718Z,62.90
2022-12-23T06:52:36.113Z,56.23
2022-12-23T06:55:02.894Z,61.03
2022-12-23T06:57:29.530Z,70.90
2022-12-23T06:59:56.711Z,69.60
2022-12-23T07:02:23.619Z,70.43
2022-12-23T07:04:50.305Z,71.03
2022-12-23T07:07:16.956Z,82.73
2022-12-23T07:09:44.332Z,71.60
2022-12-23T07:12:10.957Z,85.83
2022-12-23T07:14:37.585Z,80.37
2022-12-23T07:17:04.277Z,81.13
2022-12-23T07:19:31.060Z,76.13
2022-12-23T07:21:57.701Z,92.67
2022-12-23T07:24:24.346Z,74.90
2022-12-23T07:26:51.787Z,76.97
2022-12-23T07:29:18.425Z,75.37
2022-12-23T07:31:45.159Z,82.27
2022-12-23T07:34:11.889Z,76.33
2022-12-23T07:36:38.565Z,77.23
2022-12-23T07:39:05.557Z,68.03
2022-12-23T07:41:32.487Z,62.63
2022-12-23T07:43:59.936Z,72.93
2022-12-23T07:46:26.628Z,72.50
2022-12-23T07:48:53.347Z,68.23
2022-12-23T07:51:20.090Z,64.60
2022-12-23T07:53:49.022Z,71.97
2022-12-23T07:56:15.814Z,55.13
2022-12-23T07:58:42.620Z,49.50
2022-12-23T08:01:10.032Z,55.50
2022-12-23T08:03:36.941Z,65.57
2022-12-23T08:06:06.173Z,55.60
2022-12-23T08:08:33.139Z,63.33
2022-12-23T08:11:04.048Z,65.13
2022-12-23T08:13:32.195Z,67.23
2022-12-23T08:16:01.600Z,67.07
2022-12-23T08:18:31.887Z,66.27
2022-12-23T08:20:59.880Z,69.33
2022-12-23T08:23:27.846Z,62.13
2022-12-23T08:26:03.737Z,72.73
2022-12-23T08:28:31.300Z,69.20
2022-12-23T08:31:05.008Z,66.43
2022-12-23T08:33:32.522Z,65.07
2022-12-23T08:35:59.360Z,70.30
2022-12-23T08:38:26.209Z,54.03
2022-12-23T08:40:52.905Z,65.07
2022-12-23T08:43:19.515Z,65.93
2022-12-23T08:45:46.272Z,79.87
2022-12-23T08:48:13.528Z,64.33
2022-12-23T08:50:42.579Z,60.53
2022-12-23T08:53:10.080Z,63.13
2022-12-23T08:55:38.057Z,60.57
2022-12-23T08:58:05.198Z,63.00
2022-12-23T09:00:32.385Z,60.07
2022-12-23T09:02:59.279Z,62.37
2022-12-23T09:05:31.331Z,57.07
2022-12-23T09:07:58.756Z,66.67
2022-12-23T09:10:25.852Z,55.80
2022-12-23T09:12:52.569Z,68.57
2022-12-23T09:15:19.207Z,50.57
2022-12-23T09:17:45.847Z,79.67
2022-12-23T09:20:12.805Z,58.53
2022-12-23T09:22:39.783Z,68.40
2022-12-23T09:25:07.715Z,70.27
2022-12-23T09:27:34.527Z,61.87
2022-12-23T09:30:01.231Z,62.73
2022-12-23T09:32:27.897Z,60.43
2022-12-23T09:34:54.527Z,56.03
2022-12-23T09:37:21.277Z,80.20
2022-12-23T09:39:48.245Z,62.30
2022-12-23T09:42:27.953Z,57.47
2022-12-23T09:45:06.158Z,68.53
2022-12-23T09:47:33.885Z,59.90
2022-12-23T09:50:03.593Z,69.60
2022-12-23T09:52:37.541Z,74.10
2022-12-23T09:55:06.333Z,68.57
2022-12-23T09:57:40.079Z,66.07
2022-12-23T10:00:13.529Z,62.07
2022-12-23T10:02:53.985Z,60.30
2022-12-23T10:05:30.195Z,61.10
2022-12-23T10:08:01.986Z,81.20
2022-12-23T10:10:36.393Z,77.57
2022-12-23T10:13:07.600Z,75.83
2022-12-23T10:15:37.349Z,69.60
2022-12-23T10:18:07.275Z,77.90
2022-12-23T10:20:41.466Z,75.63
2022-12-23T10:23:15.647Z,78.87
2022-12-23T10:25:49.218Z,74.60
2022-12-23T10:28:17.615Z,65.97
2022-12-23T10:31:17.115Z,60.27
2022-12-23T10:33:51.969Z,59.17
2022-12-23T10:36:27.667Z,63.53
2022-12-23T10:39:02.658Z,56.67
2022-12-23T10:41:37.549Z,54.53
2022-12-23T10:44:24.793Z,47.13
2022-12-23T10:47:00.343Z,41.97
2022-12-23T10:49:38.980Z,49.47
2022-12-23T10:52:12.482Z,48.43
2022-12-23T10:54:41.232Z,54.20
2022-12-23T10:57:11.306Z,47.00
2022-12-23T10:59:40.672Z,45.20
2022-12-23T11:02:28.185Z,51.40
2022-12-23T11:04:55.069Z,44.67
2022-12-23T11:07:43.967Z,39.13
2022-12-23T11:10:19.295Z,43.30
2022-12-23T11:12:52.324Z,41.53
2022-12-23T11:15:29.562Z,35.00
2022-12-23T11:18:01.544Z,35.20
2022-12-23T11:20:28.905Z,35.47
2022-12-23T11:22:59.183Z,32.83
2022-12-23T11:25:29.326Z,31.53
2022-12-23T11:27:59.369Z,31.20
2022-12-23T11:30:27.885Z,31.57
2022-12-23T11:32:54.848Z,37.73
2022-12-23T11:35:27.366Z,36.83
2022-12-23T11:37:54.816Z,27.47
2022-12-23T11:40:24.721Z,28.73
2022-12-23T11:42:56.865Z,30.97
2022-12-23T11:45:27.000Z,35.97
2022-12-23T11:47:54.023Z,36.63
2022-12-23T11:50:33.671Z,36.67
2022-12-23T11:53:18.555Z,26.17
2022-12-23T11:55:56.382Z,29.80
2022-12-23T11:58:24.527Z,28.60
2022-12-23T12:00:56.175Z,33.83
2022-12-23T12:03:27.183Z,30.03
2022-12-23T12:05:57.484Z,35.10
2022-12-23T12:08:28.260Z,39.27
2022-12-23T12:11:02.023Z,36.43
2022-12-23T12:13:30.611Z,39.27
2022-12-23T12:16:10.699Z,37.30
2022-12-23T12:18:39.505Z,36.90
2022-12-23T12:21:10.778Z,38.27
2022-12-23T12:23:43.472Z,40.37
2022-12-23T12:26:16.573Z,41.30
2022-12-23T12:28:46.366Z,36.73
2022-12-23T12:31:21.080Z,38.93
2022-12-23T12:33:51.593Z,36.70
2022-12-23T12:36:30.098Z,38.27
2022-12-23T12:38:59.316Z,34.10
2022-12-23T12:41:32.378Z,35.80
2022-12-23T12:44:09.651Z,35.10
2022-12-23T12:46:43.087Z,45.13
2022-12-23T12:49:15.212Z,40.53
2022-12-23T12:51:48.961Z,33.77
2022-12-23T12:54:22.751Z,37.23
2022-12-23T12:56:53.422Z,32.80
2022-12-23T12:59:25.001Z,33.47
2022-12-23T13:02:04.593Z,27.93
2022-12-23T13:05:01.992Z,33.17
2022-12-23T13:07:38.496Z,33.50
2022-12-23T13:10:16.001Z,27.87
2022-12-23T13:12:57.424Z,31.63
2022-12-23T13:15:30.061Z,23.33
2022-12-23T13:18:15.227Z,22.57
2022-12-23T13:20:48.234Z,31.07
2022-12-23T13:23:42.348Z,26.30
2022-12-23T13:26:17.751Z,26.77
2022-12-23T13:28:53.941Z,24.10
2022-12-23T13:31:40.037Z,24.43
2022-12-23T13:34:22.098Z,27.77
2022-12-23T13:36:57.021Z,25.87
2022-12-23T13:39:35.444Z,26.00
2022-12-23T13:42:06.038Z,29.77
2022-12-23T13:44:34.288Z,26.50
2022-12-23T13:47:10.204Z,31.73
2022-12-23T13:49:51.621Z,28.67
2022-12-23T13:52:30.379Z,30.77
2022-12-23T13:55:04.841Z,33.93
2022-12-23T13:57:49.157Z,30.33
2022-12-23T14:00:29.052Z,26.70
2022-12-23T14:03:33.064Z,23.37
2022-12-23T14:06:20.524Z,28.17
2022-12-23T14:08:47.723Z,23.37
2022-12-23T14:11:19.366Z,30.97
2022-12-23T14:13:54.450Z,32.43
2022-12-23T14:16:45.943Z,30.10
2022-12-23T14:19:37.048Z,26.80
2022-12-23T14:22:20.847Z,28.47
2022-12-23T14:25:11.229Z,33.10
2022-12-23T14:27:50.328Z,23.10
2022-12-23T14:30:23.928Z,22.43
2022-12-23T14:32:53.066Z,25.50
2022-12-23T14:35:26.868Z,24.70
2022-12-23T14:38:25.690Z,25.90
2022-12-23T14:41:17.511Z,23.77
2022-12-23T14:43:59.098Z,17.60
2022-12-23T14:46:56.965Z,19.23
2022-12-23T14:49:42.516Z,21.77
2022-12-23T14:52:50.767Z,27.33
2022-12-23T14:55:41.182Z,25.53
2022-12-23T14:58:21.211Z,28.00
2022-12-23T15:00:50.574Z,24.07
2022-12-23T15:03:19.535Z,28.17
2022-12-23T15:05:46.627Z,25.63
2022-12-23T15:08:26.185Z,29.60
2022-12-23T15:10:55.434Z,23.60
2022-12-23T15:13:24.689Z,23.77
2022-12-23T15:15:56.065Z,17.33
2022-12-23T15:18:26.759Z,22.87
2022-12-23T15:21:01.399Z,21.03
2022-12-23T15:23:28.156Z,25.93
2022-12-23T15:25:57.685Z,42.63
2022-12-23T15:28:34.532Z,27.80
2022-12-23T15:31:01.410Z,31.60
2022-12-23T15:36:26.095Z,31.30
2022-12-23T15:38:52.925Z,33.27
2022-12-23T15:41:21.866Z,29.80
2022-12-23T15:43:49.148Z,29.40
2022-12-23T15:46:21.944Z,28.23
2022-12-23T15:48:52.231Z,28.43
2022-12-23T15:51:50.002Z,29.80
2022-12-23T15:54:22.266Z,31.20
2022-12-23T15:56:52.329Z,32.00
2022-12-23T15:59:24.274Z,36.30
2022-12-23T16:01:51.223Z,33.57
2022-12-23T16:04:21.804Z,32.30
2022-12-23T16:06:50.517Z,35.70
2022-12-23T16:09:32.343Z,31.90
2022-12-23T16:12:01.343Z,33.10
2022-12-23T16:14:39.469Z,34.67
2022-12-23T16:17:23.065Z,32.80
2022-12-23T16:19:51.235Z,39.67
2022-12-23T16:22:27.269Z,31.73
2022-12-23T16:25:07.393Z,39.00
2022-12-23T16:27:38.131Z,37.47
2022-12-23T16:30:11.020Z,41.73
2022-12-23T16:32:47.726Z,41.47
2022-12-23T16:35:26.344Z,39.83
2022-12-23T16:37:57.666Z,35.20
2022-12-23T16:40:24.319Z,36.97
2022-12-23T16:42:51.595Z,36.77
2022-12-23T16:45:18.233Z,36.63
2022-12-23T16:47:45.016Z,34.03
2022-12-23T16:50:14.293Z,48.47
2022-12-23T16:52:41.059Z,41.30
2022-12-23T16:55:16.623Z,40.33
2022-12-23T16:57:44.617Z,42.33
2022-12-23T17:00:16.301Z,50.50
2022-12-23T17:02:44.257Z,37.30
2022-12-23T17:05:18.296Z,33.13
2022-12-23T17:07:45.902Z,41.97
2022-12-23T17:10:14.034Z,40.83
2022-12-23T17:12:41.158Z,44.53
2022-12-23T17:15:11.807Z,37.87
2022-12-23T17:17:39.622Z,37.80
2022-12-23T17:20:07.831Z,37.00
2022-12-23T17:22:36.748Z,40.00
2022-12-23T17:25:04.594Z,38.10
2022-12-23T17:27:31.302Z,40.93
2022-12-23T17:29:57.983Z,44.33
2022-12-23T17:32:24.770Z,39.33
2022-12-23T17:34:52.169Z,41.37
2022-12-23T17:37:20.661Z,58.50
2022-12-23T17:39:47.535Z,93.67
2022-12-23T17:42:23.339Z,70.73
2022-12-23T17:44:52.067Z,47.97
2022-12-23T17:47:20.553Z,52.70
2022-12-23T17:49:47.302Z,47.60
2022-12-23T17:52:17.373Z,39.53
2022-12-23T17:54:45.177Z,47.67
2022-12-23T17:57:18.618Z,50.73
2022-12-23T17:59:47.888Z,49.60
2022-12-23T18:02:22.018Z,48.60
2022-12-23T18:04:48.798Z,47.53
2022-12-23T18:07:16.799Z,46.87
2022-12-23T18:09:43.672Z,51.07
2022-12-23T18:12:24.921Z,46.77
2022-12-23T18:14:52.264Z,44.57
2022-12-23T18:17:18.986Z,43.93
2022-12-23T18:19:45.641Z,44.03
2022-12-23T18:22:17.590Z,46.03
2022-12-23T18:24:44.412Z,43.43
2022-12-23T18:27:14.472Z,54.97
2022-12-23T18:29:41.396Z,59.50
2022-12-23T18:32:12.739Z,54.00
2022-12-23T18:34:39.392Z,53.70
2022-12-23T18:37:08.381Z,71.00
2022-12-23T18:39:35.726Z,68.47
2022-12-23T18:42:02.456Z,74.43
2022-12-23T18:44:29.148Z,70.63
2022-12-23T18:46:55.917Z,70.57
2022-12-23T18:49:22.686Z,67.70
2022-12-23T18:51:49.336Z,66.97
2022-12-23T18:54:16.690Z,63.30
2022-12-23T18:56:44.091Z,62.40
2022-12-23T18:59:16.118Z,77.83
2022-12-23T19:01:42.876Z,69.50
2022-12-23T19:04:09.626Z,69.47
2022-12-23T19:06:36.456Z,67.73
2022-12-23T19:09:13.667Z,67.73
2022-12-23T19:11:40.495Z,66.70
2022-12-23T19:14:08.921Z,63.93
2022-12-23T19:16:35.650Z,57.13
2022-12-23T19:19:02.831Z,55.00
2022-12-23T19:21:29.479Z,64.00
2022-12-23T19:23:57.569Z,64.00
2022-12-23T19:26:24.787Z,59.43
2022-12-23T19:28:51.370Z,63.37
2022-12-23T19:31:22.382Z,56.20
2022-12-23T19:33:49.233Z,57.07
2022-12-23T19:36:17.862Z,65.77
2022-12-23T19:38:44.796Z,62.40
2022-12-23T19:41:13.525Z,68.43
2022-12-23T19:43:44.510Z,66.93
2022-12-23T19:46:12.700Z,70.50
2022-12-23T19:48:40.108Z,75.27
2022-12-23T19:51:08.616Z,69.87
2022-12-23T19:53:37.690Z,67.90
2022-12-23T19:56:06.766Z,76.97
2022-12-23T19:58:35.935Z,86.33
2022-12-23T20:01:07.531Z,77.93
2022-12-23T20:03:34.520Z,75.20
2022-12-23T20:06:03.607Z,70.20
2022-12-23T20:08:30.703Z,70.80
2022-12-23T20:11:04.196Z,65.93
2022-12-23T20:13:31.036Z,62.13
2022-12-23T20:15:59.081Z,62.83
2022-12-23T20:18:26.823Z,63.63
2022-12-23T20:20:58.131Z,70.03
2022-12-23T20:23:29.133Z,63.53
2022-12-23T20:25:58.700Z,69.87
2022-12-23T20:28:27.007Z,72.77
2022-12-23T20:31:06.987Z,87.97
2022-12-23T20:33:36.163Z,94.43
2022-12-23T20:36:08.910Z,102.70
2022-12-23T20:38:43.101Z,101.57
2022-12-23T20:41:16.957Z,79.90
2022-12-23T20:44:02.710Z,91.47
2022-12-23T20:46:31.015Z,87.20
2022-12-23T20:49:01.208Z,87.97
2022-12-23T20:51:31.598Z,71.30
2022-12-23T20:54:08.667Z,74.33
2022-12-23T20:56:52.057Z,76.50
2022-12-23T20:59:26.370Z,79.70
2022-12-23T21:01:56.821Z,81.57
2022-12-23T21:04:25.800Z,82.00
2022-12-23T21:07:10.729Z,75.57
2022-12-23T21:09:42.832Z,63.50
2022-12-23T21:12:09.824Z,63.27
2022-12-23T21:14:40.800Z,63.13
2022-12-23T21:17:11.324Z,62.00
2022-12-23T21:19:40.844Z,60.77
2022-12-23T21:22:10.778Z,61.70
2022-12-23T21:24:38.343Z,65.87
2022-12-23T21:29:46.591Z,69.23
2022-12-23T21:32:13.326Z,59.60
2022-12-23T21:34:45.034Z,63.43
2022-12-23T21:37:11.806Z,58.80
2022-12-23T21:39:39.644Z,63.30
2022-12-23T21:42:07.178Z,59.83
2022-12-23T21:44:34.110Z,64.27
2022-12-23T21:47:00.778Z,59.53
2022-12-23T21:49:27.506Z,60.57
2022-12-23T21:51:54.478Z,52.57
2022-12-23T21:54:21.323Z,54.87
2022-12-23T21:56:56.892Z,58.00
2022-12-23T21:59:23.501Z,47.47
2022-12-23T22:01:51.602Z,59.20
2022-12-23T22:04:18.398Z,52.37
2022-12-23T22:06:45.458Z,48.63
2022-12-23T22:09:15.916Z,47.27
2022-12-23T22:11:43.143Z,40.10
2022-12-23T22:14:13.451Z,40.87
2022-12-23T22:16:40.279Z,41.50
2022-12-23T22:19:08.567Z,38.07
2022-12-23T22:21:36.232Z,41.23
2022-12-23T22:24:03.722Z,40.33
2022-12-23T22:26:40.350Z,40.57
2022-12-23T22:29:07.512Z,31.73
2022-12-23T22:31:39.209Z,38.77
2022-12-23T22:34:07.751Z,31.60
2022-12-23T22:36:34.857Z,33.50
2022-12-23T22:39:02.711Z,38.70
2022-12-23T22:41:31.230Z,36.87
2022-12-23T22:43:59.205Z,31.70
2022-12-23T22:46:27.247Z,32.77
2022-12-23T22:48:54.759Z,31.60
2022-12-23T22:51:22.702Z,35.73
2022-12-23T22:53:50.182Z,37.60
2022-12-23T22:56:19.383Z,26.67
2022-12-23T22:58:46.036Z,28.40
2022-12-23T23:01:19.890Z,31.03
2022-12-23T23:03:46.677Z,31.80
2022-12-23T23:06:14.240Z,29.83
2022-12-23T23:08:42.703Z,34.33
2022-12-23T23:11:10.198Z,43.53
2022-12-23T23:13:38.006Z,33.03
2022-12-23T23:16:05.230Z,31.87
2022-12-23T23:18:32.463Z,26.33
2022-12-23T23:21:02.310Z,28.93
2022-12-23T23:23:30.235Z,30.00
2022-12-23T23:26:00.307Z,26.23
2022-12-23T23:28:27.163Z,29.97
2022-12-23T23:31:16.853Z,29.17
2022-12-23T23:33:42.657Z,27.23
2022-12-23T23:36:09.736Z,22.33
2022-12-23T23:38:37.226Z,28.07
2022-12-23T23:41:04.040Z,31.73
2022-12-23T23:43:30.762Z,26.87
2022-12-23T23:45:58.700Z,27.17
2022-12-23T23:48:25.448Z,31.57
2022-12-23T23:50:52.006Z,33.77
2022-12-23T23:53:18.576Z,25.63
2022-12-23T23:55:46.049Z,28.23
2022-12-23T23:58:12.631Z,32.40
